Time;durP1;ratioP1;P1;durP2;ratioP2;P2;SDS_P1;SDS_P2;PMS_P1;PMS_P2;Temp;Humidity;BMP_temperature;BMP_pressure;BME280_temperature;BME280_humidity;BME280_pressure;Samples;Min_cycle;Max_cycle;Signal;HPM_P1;HPM_P2
2022/01/28 00:00:16;;;;;;;40.17;36.63;;;;;;;21.98;23.81;95471.88;7297917;19;136881;-56
2022/01/28 00:02:53;;;;;;;38.20;34.97;;;;;;;21.99;23.69;95472.66;7284032;19;136902;-56
2022/01/28 00:05:21;;;;;;;37.53;34.23;;;;;;;21.99;23.36;95472.66;7297863;19;138065;-56
2022/01/28 00:07:48;;;;;;;36.50;33.40;;;;;;;21.99;22.98;95472.66;7296783;19;137641;-56
2022/01/28 00:10:14;;;;;;;36.27;32.97;;;;;;;21.96;23.63;95460.72;7297206;19;136894;-56
2022/01/28 00:12:58;;;;;;;35.00;32.00;;;;;;;21.99;23.52;95459.38;7282635;19;138539;-56
2022/01/28 00:15:36;;;;;;;32.77;30.07;;;;;;;21.92;23.11;95439.25;7296799;19;137415;-56
2022/01/28 00:39:22;;;;;;;30.13;27.63;;;;;;;21.96;23.43;95438.66;7296892;19;136876;-56
2022/01/28 00:41:48;;;;;;;30.03;27.50;;;;;;;21.89;22.60;95428.41;7296136;19;137262;-56
2022/01/28 00:44:13;;;;;;;27.70;25.30;;;;;;;21.93;23.35;95432.84;7296275;19;139261;-56
2022/01/28 00:46:39;;;;;;;28.97;26.50;;;;;;;21.92;23.21;95433.94;7279482;19;137597;-56
2022/01/28 00:49:04;;;;;;;28.20;25.87;;;;;;;21.93;23.13;95424.06;7296359;19;137416;-58
2022/01/28 00:51:30;;;;;;;26.07;23.90;;;;;;;21.94;23.33;95423.00;7296262;19;138277;-56
2022/01/28 00:53:55;;;;;;;26.90;24.60;;;;;;;21.93;22.99;95419.53;7293334;19;137479;-58
2022/01/28 00:56:21;;;;;;;26.97;24.53;;;;;;;;;;7283321;19;138329;-56
2022/01/28 00:58:46;;;;;;;27.20;24.90;;;;;;;21.94;23.17;95430.97;7296610;19;137643;-57
2022/01/28 01:01:12;;;;;;;25.90;23.77;;;;;;;21.93;22.78;95418.75;7296361;19;138120;-56
2022/01/28 01:03:37;;;;;;;26.70;24.47;;;;;;;21.93;23.37;95416.88;7296279;19;138903;-56
2022/01/28 01:06:03;;;;;;;27.00;24.80;;;;;;;21.95;23.17;95415.81;7296212;19;137029;-56
2022/01/28 01:08:28;;;;;;;26.30;24.10;;;;;;;21.94;22.74;95409.69;7280809;19;137144;-56
2022/01/28 01:10:54;;;;;;;26.37;24.10;;;;;;;21.93;22.83;95408.91;7295342;19;137090;-56
2022/01/28 01:13:20;;;;;;;27.60;25.30;;;;;;;21.90;22.91;95396.19;7293905;19;138169;-57
2022/01/28 01:15:50;;;;;;;26.60;24.40;;;;;;;21.87;22.98;95390.66;7295650;19;137991;-57
2022/01/28 01:18:24;;;;;;;25.53;23.40;;;;;;;21.86;22.92;95392.53;7281597;19;138463;-57
2022/01/28 01:25:54;;;;;;;24.77;22.77;;;;;;;21.89;22.71;95389.28;7295264;19;136812;-57
2022/01/28 01:28:22;;;;;;;29.63;27.20;;;;;;;21.92;22.43;95388.69;7294502;19;136940;-56
2022/01/28 01:30:48;;;;;;;24.63;22.57;;;;;;;21.91;22.56;95378.34;7280079;19;137938;-56
2022/01/28 01:33:16;;;;;;;28.23;25.83;;;;;;;21.92;22.45;95370.06;7293196;19;138092;-56
2022/01/28 01:35:42;;;;;;;25.93;23.83;;;;;;;21.91;22.44;95363.19;7294691;19;139652;-56
2022/01/28 01:38:09;;;;;;;26.43;24.23;;;;;;;21.90;23.07;95366.13;7300391;19;138328;-56
2022/01/28 01:40:51;;;;;;;25.53;23.43;;;;;;;21.91;22.79;95363.19;7287985;19;137095;-56
2022/01/28 01:43:35;;;;;;;26.00;23.90;;;;;;;21.91;22.65;95360.53;7300898;19;137975;-56
2022/01/28 01:46:15;;;;;;;27.23;25.03;;;;;;;21.91;22.96;95352.53;7300597;19;138265;-56
2022/01/28 01:54:09;;;;;;;24.80;22.80;;;;;;;21.90;22.49;95339.53;7299758;19;137154;-57
2022/01/28 01:56:37;;;;;;;25.90;23.70;;;;;;;21.90;22.44;95345.63;7300807;19;137189;-56
2022/01/28 01:59:02;;;;;;;26.83;24.53;;;;;;;21.90;22.76;95345.63;7300104;19;137033;-56
2022/01/28 02:01:28;;;;;;;24.13;22.23;;;;;;;21.85;22.47;95336.97;7300997;19;137171;-56
2022/01/28 02:03:53;;;;;;;25.73;23.53;;;;;;;21.91;22.66;95347.22;7286233;19;137973;-56
2022/01/28 02:06:22;;;;;;;25.73;23.53;;;;;;;21.84;23.15;95341.50;7300667;19;137401;-56
2022/01/28 02:08:48;;;;;;;24.30;22.30;;;;;;;21.90;22.92;95344.84;7300130;19;137359;-56
2022/01/28 02:11:13;;;;;;;24.30;22.30;;;;;;;21.87;22.04;95348.09;7300758;19;136611;-56
2022/01/28 02:13:40;;;;;;;25.10;23.10;;;;;;;21.85;22.46;95340.41;7284798;19;137212;-56
2022/01/28 02:16:07;;;;;;;23.17;21.27;;;;;;;21.91;22.67;95344.56;7300632;19;139180;-57
2022/01/28 02:18:33;;;;;;;26.03;23.83;;;;;;;21.90;22.20;95331.56;7297802;19;136820;-56
2022/01/28 02:21:06;;;;;;;24.93;23.00;;;;;;;21.90;23.00;95328.88;7300457;19;136784;-57
2022/01/28 02:23:32;;;;;;;24.50;22.33;;;;;;;21.89;22.88;95325.44;7300094;19;140439;-57
2022/01/28 02:25:59;;;;;;;25.27;23.17;;;;;;;21.88;22.73;95325.72;7285898;19;139963;-56
2022/01/28 02:28:27;;;;;;;23.73;21.80;;;;;;;21.89;22.55;95328.09;7298610;19;136906;-56
2022/01/28 02:30:52;;;;;;;25.50;23.30;;;;;;;21.90;22.55;95334.22;7298942;19;136856;-56
2022/01/28 02:33:21;;;;;;;24.97;22.87;;;;;;;21.87;22.67;95319.63;7298631;19;137112;-57
2022/01/28 02:35:48;;;;;;;24.50;22.40;;;;;;;21.85;22.47;95321.78;7287273;19;138012;-56
2022/01/28 02:38:15;;;;;;;26.07;23.87;;;;;;;21.87;22.21;95314.31;7298464;19;136930;-56
2022/01/28 02:40:46;;;;;;;23.83;21.87;;;;;;;21.88;22.32;95312.44;7299550;19;136861;-57
2022/01/28 02:45:48;;;;;;;22.60;20.80;;;;;;;21.88;22.53;95325.72;7296859;19;136934;-56
2022/01/28 02:48:18;;;;;;;22.87;21.00;;;;;;;21.89;22.26;95311.34;7290319;19;137206;-56
2022/01/28 02:51:09;;;;;;;22.40;20.50;;;;;;;21.87;22.30;95318.84;7298804;19;136977;-56
2022/01/28 02:56:33;;;;;;;23.23;21.33;;;;;;;21.84;22.77;95314.91;7297448;19;136902;-56
2022/01/28 02:58:59;;;;;;;20.70;18.93;;;;;;;21.88;22.51;95313.22;7284167;19;136886;-56
2022/01/28 03:01:25;;;;;;;21.37;19.60;;;;;;;21.84;21.94;95309.56;7299292;19;136952;-56
2022/01/28 03:03:51;;;;;;;20.97;19.20;;;;;;;21.86;22.32;95304.75;7297699;19;137901;-56
2022/01/28 03:06:19;;;;;;;21.57;19.77;;;;;;;21.86;22.44;95304.75;7298562;19;138322;-56
2022/01/28 03:08:52;;;;;;;20.30;18.70;;;;;;;21.86;22.59;95309.28;7286147;19;137765;-57
2022/01/28 03:14:14;;;;;;;20.77;18.97;;;;;;;21.86;22.09;95306.63;7297558;19;137110;-56
2022/01/28 03:17:10;;;;;;;20.20;18.50;;;;;;;21.80;22.09;95291.81;7298797;19;137312;-56
2022/01/28 03:19:41;;;;;;;19.00;17.40;;;;;;;21.79;22.17;95295.56;7283952;19;139034;-56
2022/01/28 03:22:06;;;;;;;18.93;17.43;;;;;;;21.78;21.83;95289.44;7297932;19;137636;-57
2022/01/28 03:24:32;;;;;;;17.87;16.47;;;;;;;21.74;22.42;95293.75;7300105;19;138991;-56
2022/01/28 03:27:06;;;;;;;18.30;16.80;;;;;;;21.75;22.67;95289.25;7299782;19;137068;-57
2022/01/28 03:29:31;;;;;;;17.93;16.53;;;;;;;21.73;22.55;95278.09;7296252;19;136924;-57
2022/01/28 03:31:57;;;;;;;16.60;15.30;;;;;;;21.72;21.97;95281.84;7284127;19;136944;-57
2022/01/28 03:34:23;;;;;;;18.53;17.03;;;;;;;21.73;22.48;95294.06;7296130;19;137334;-57
2022/01/28 03:36:50;;;;;;;16.10;14.70;;;;;;;21.74;22.41;95287.66;7296252;19;138126;-57
2022/01/28 03:39:16;;;;;;;16.90;15.50;;;;;;;21.71;22.58;95270.41;7297656;19;137816;-56
2022/01/28 03:41:41;;;;;;;17.40;16.00;;;;;;;21.67;22.69;95264.13;7286564;19;139404;-56
2022/01/28 03:44:07;;;;;;;16.53;15.13;;;;;;;21.68;22.94;95247.06;7297969;19;137354;-56
2022/01/28 03:46:33;;;;;;;17.07;15.67;;;;;;;21.70;22.78;95263.53;7296552;19;139219;-56
2022/01/28 03:48:59;;;;;;;16.90;15.60;;;;;;;21.70;22.59;95260.88;7298044;19;137642;-56
2022/01/28 03:51:25;;;;;;;16.87;15.50;;;;;;;21.69;22.54;95259.28;7295797;19;137038;-57
2022/01/28 03:53:50;;;;;;;15.80;14.50;;;;;;;21.69;22.45;95247.88;7282661;19;137296;-56
2022/01/28 03:56:16;;;;;;;15.13;13.93;;;;;;;21.64;22.36;95243.41;7295877;19;137498;-56
2022/01/28 03:58:42;;;;;;;15.07;13.77;;;;;;;21.67;21.84;95244.69;7295188;19;138882;-56
2022/01/28 04:01:16;;;;;;;15.87;14.37;;;;;;;21.65;21.98;95237.00;7295503;19;137623;-57
2022/01/28 04:03:49;;;;;;;15.17;13.87;;;;;;;21.68;21.94;95246.28;7284314;19;137272;-56
2022/01/28 04:11:27;;;;;;;13.90;12.77;;;;;;;21.63;22.21;95231.97;7296737;19;136705;-57
2022/01/28 04:11:38;;;;;;;12.77;11.63;;;;;;;21.66;22.29;95227.94;7296384;19;136734;-56
2022/01/28 04:14:35;;;;;;;12.40;11.30;;;;;;;21.69;22.42;95235.34;7281886;19;136988;-56
2022/01/28 04:19:44;;;;;;;12.70;11.67;;;;;;;21.74;22.45;95232.59;7297281;19;137888;-56
2022/01/28 04:22:10;;;;;;;12.40;11.40;;;;;;;21.75;22.26;95246.69;7294407;19;136747;-56
2022/01/28 04:24:35;;;;;;;13.80;12.60;;;;;;;21.72;22.30;95237.44;7296522;19;136856;-56
2022/01/28 04:27:00;;;;;;;13.43;11.20;;;;;;;21.63;22.17;95217.88;7281661;19;137479;-56
2022/01/28 04:29:26;;;;;;;11.70;10.70;;;;;;;21.72;22.39;95248.06;7296718;19;137088;-56
2022/01/28 04:31:53;;;;;;;11.80;10.80;;;;;;;21.72;22.74;95256.03;7296971;19;138777;-56
2022/01/28 04:34:21;;;;;;;11.30;10.30;;;;;;;21.70;22.45;95252.88;7293838;19;136997;-56
2022/01/28 04:44:58;;;;;;;11.33;10.33;;;;;;;21.80;22.58;95251.91;7296877;19;138203;-57
2022/01/28 04:47:40;;;;;;;10.90;9.83;;;;;;;21.79;22.54;95248.47;7283424;19;138886;-56
2022/01/28 04:50:16;;;;;;;11.07;9.97;;;;;;;21.82;23.24;95253.19;7294023;19;137365;-57
2022/01/28 05:03:13;;;;;;;13.23;9.73;;;;;;;21.80;23.18;95250.03;7295408;19;137004;-56
2022/01/28 05:09:05;;;;;;;11.43;10.23;;;;;;;21.96;22.94;95273.72;7296607;19;137146;-56
2022/01/28 05:17:00;;;;;;;10.13;9.23;;;;;;;22.03;22.58;95266.16;7310262;19;136989;-56
2022/01/28 05:27:26;;;;;;;12.40;11.30;;;;;;;21.93;23.10;95256.47;7307966;19;137274;-56
2022/01/28 05:29:51;;;;;;;11.77;10.73;;;;;;;21.93;22.91;95267.91;7309578;19;137860;-56
2022/01/28 05:32:17;;;;;;;11.13;10.17;;;;;;;21.86;23.34;95253.44;7296275;19;138006;-56
2022/01/28 05:34:43;;;;;;;11.90;10.70;;;;;;;21.93;22.92;95259.94;7307485;19;137901;-56
2022/01/28 05:37:09;;;;;;;11.57;10.37;;;;;;;21.93;22.77;95270.56;7307079;19;137519;-56
2022/01/28 05:39:35;;;;;;;11.10;10.10;;;;;;;21.92;22.63;95263.66;7306076;19;137020;-56
2022/01/28 05:42:00;;;;;;;10.83;9.93;;;;;;;21.92;22.68;95268.22;7305682;19;136937;-56
2022/01/28 05:44:27;;;;;;;11.10;10.20;;;;;;;21.91;22.66;95271.94;7296019;19;136966;-56
2022/01/28 05:46:56;;;;;;;13.27;9.73;;;;;;;21.90;22.88;95275.69;7307535;19;137297;-56
2022/01/28 05:49:21;;;;;;;11.87;10.87;;;;;;;21.98;22.93;95275.00;7307490;19;138725;-57
2022/01/28 05:51:47;;;;;;;11.17;10.00;;;;;;;22.04;22.41;95275.72;7308490;19;138216;-56
2022/01/28 05:54:12;;;;;;;11.37;10.37;;;;;;;22.05;22.45;95274.66;7296350;19;138801;-56
2022/01/28 05:56:38;;;;;;;10.97;10.07;;;;;;;22.09;22.63;95273.00;7308747;19;137571;-56
2022/01/28 05:59:04;;;;;;;11.90;10.70;;;;;;;22.10;22.24;95271.91;7309530;19;137754;-56
2022/01/28 06:01:29;;;;;;;10.47;9.57;;;;;;;22.09;22.01;95273.78;7309704;19;137802;-56
2022/01/28 06:03:55;;;;;;;11.40;10.50;;;;;;;22.12;22.00;95281.19;7308254;19;137755;-56
2022/01/28 06:06:23;;;;;;;11.33;10.30;;;;;;;22.11;22.33;95281.47;7296325;19;140485;-56
2022/01/28 06:08:51;;;;;;;11.70;10.70;;;;;;;22.12;22.00;95277.72;7307914;19;137759;-56
2022/01/28 06:11:17;;;;;;;10.97;9.80;;;;;;;22.11;22.03;95268.16;7307744;19;136851;-56
2022/01/28 06:13:43;;;;;;;11.80;10.70;;;;;;;22.14;21.84;95278.22;7307267;19;137021;-56
2022/01/28 06:16:12;;;;;;;12.00;10.80;;;;;;;22.14;21.38;95279.00;7296549;19;138375;-57
2022/01/28 06:18:38;;;;;;;11.13;10.23;;;;;;;22.09;21.86;95281.78;7307886;19;138843;-56
2022/01/28 06:21:04;;;;;;;11.77;10.70;;;;;;;22.08;22.04;95293.50;7308804;19;136772;-56
2022/01/28 06:23:31;;;;;;;12.30;11.20;;;;;;;22.16;21.66;95294.69;7301464;19;137713;-56
2022/01/28 06:25:56;;;;;;;11.67;10.67;;;;;;;22.18;21.74;95300.53;7301218;19;137542;-56
2022/01/28 06:28:22;;;;;;;13.17;11.87;;;;;;;22.17;21.52;95298.91;7289481;19;138675;-56
2022/01/28 06:30:47;;;;;;;12.90;11.73;;;;;;;22.17;21.01;95298.91;7302439;19;137390;-56
2022/01/28 06:33:14;;;;;;;12.30;11.30;;;;;;;22.18;21.22;95303.19;7301019;19;137803;-56
2022/01/28 06:35:41;;;;;;;13.87;12.60;;;;;;;22.18;21.70;95301.31;7298362;19;137077;-56
2022/01/28 06:38:06;;;;;;;13.17;12.00;;;;;;;22.13;21.42;95295.28;7287102;19;137186;-57
2022/01/28 06:40:32;;;;;;;16.13;14.63;;;;;;;22.11;21.89;95298.22;7300202;19;137348;-56
2022/01/28 06:42:58;;;;;;;14.70;13.37;;;;;;;22.18;21.55;95300.53;7300893;19;136940;-56
2022/01/28 06:45:23;;;;;;;13.90;12.70;;;;;;;22.21;21.42;95305.25;7299152;19;139064;-57
2022/01/28 06:47:49;;;;;;;13.83;12.73;;;;;;;22.20;21.27;95304.47;7300504;19;137013;-56
2022/01/28 06:50:14;;;;;;;14.57;13.23;;;;;;;22.20;21.65;95299.16;7287796;19;139357;-56
2022/01/28 06:52:42;;;;;;;14.07;12.87;;;;;;;22.21;21.08;95298.06;7299538;19;137173;-56
2022/01/28 06:55:08;;;;;;;13.87;12.47;;;;;;;22.29;21.22;95301.91;7298191;19;137140;-56
2022/01/28 06:57:33;;;;;;;14.50;13.30;;;;;;;22.72;20.95;95296.31;7300403;19;137718;-56
2022/01/28 06:59:59;;;;;;;13.77;12.53;;;;;;;22.94;20.64;95271.66;7287427;19;137173;-56
2022/01/28 07:02:25;;;;;;;14.90;13.50;;;;;;;23.26;20.43;95300.00;7300571;19;138244;-57
2022/01/28 07:04:51;;;;;;;14.23;13.10;;;;;;;23.38;20.54;95305.63;7301022;19;137649;-57
2022/01/28 07:07:17;;;;;;;15.20;14.00;;;;;;;23.43;20.31;95316.16;7300983;19;136902;-57
2022/01/28 07:09:43;;;;;;;15.23;13.93;;;;;;;23.63;20.38;95318.41;7298764;19;137516;-56
2022/01/28 07:12:09;;;;;;;15.93;14.53;;;;;;;23.50;20.46;95319.19;7287728;19;137026;-56
2022/01/28 07:14:35;;;;;;;15.20;13.93;;;;;;;23.42;20.59;95317.25;7299334;19;137320;-56
2022/01/28 07:17:00;;;;;;;14.50;13.30;;;;;;;23.35;20.36;95325.69;7300644;19;137043;-56
2022/01/28 07:19:26;;;;;;;15.77;14.23;;;;;;;23.41;20.17;95323.69;7300042;19;136861;-56
2022/01/28 07:21:52;;;;;;;14.50;13.20;;;;;;;23.43;20.66;95340.16;7286423;19;136826;-56
2022/01/28 07:24:17;;;;;;;15.77;14.20;;;;;;;23.45;20.77;95335.31;7300307;19;137327;-56
2022/01/28 07:26:43;;;;;;;14.83;13.53;;;;;;;23.49;20.92;95330.94;7299469;19;137078;-56
2022/01/28 07:29:10;;;;;;;15.63;14.23;;;;;;;23.52;20.74;95327.72;7300271;19;136853;-56
2022/01/28 07:31:38;;;;;;;17.03;15.43;;;;;;;23.58;20.62;95326.53;7300058;19;136832;-57
2022/01/28 07:34:03;;;;;;;15.93;14.43;;;;;;;23.57;20.33;95321.50;7282369;19;137365;-57
2022/01/28 07:36:29;;;;;;;15.70;14.37;;;;;;;23.69;20.70;95337.75;7299552;19;138334;-57
2022/01/28 07:38:54;;;;;;;16.43;15.03;;;;;;;23.70;20.83;95342.00;7299506;19;137896;-57
2022/01/28 07:41:20;;;;;;;16.97;15.47;;;;;;;23.64;20.65;95349.31;7299536;19;136925;-56
2022/01/28 07:43:48;;;;;;;15.80;14.40;;;;;;;23.50;20.94;95358.41;7285380;19;138734;-57
2022/01/28 07:46:14;;;;;;;15.57;14.23;;;;;;;23.49;20.39;95354.97;7299303;19;137651;-57
2022/01/28 07:48:39;;;;;;;16.80;15.30;;;;;;;23.43;20.77;95356.16;7299047;19;137045;-56
2022/01/28 07:51:05;;;;;;;15.93;14.63;;;;;;;23.56;20.99;95363.34;7299492;19;136707;-57
2022/01/28 07:53:30;;;;;;;15.03;13.73;;;;;;;23.60;20.94;95366.22;7296716;19;137918;-57
2022/01/28 07:55:56;;;;;;;15.80;14.20;;;;;;;23.63;20.34;95377.09;7281928;19;137207;-57
2022/01/28 07:58:22;;;;;;;16.17;14.73;;;;;;;23.65;20.30;95366.91;7298919;19;137008;-55
2022/01/28 08:00:48;;;;;;;15.13;13.83;;;;;;;23.65;20.40;95374.09;7299824;19;136875;-56
2022/01/28 08:03:13;;;;;;;16.60;15.20;;;;;;;23.63;20.36;95371.75;7297829;19;137509;-56
2022/01/28 08:05:39;;;;;;;16.07;14.67;;;;;;;23.69;20.30;95373.22;7285180;19;137328;-56
2022/01/28 08:08:07;;;;;;;15.33;14.00;;;;;;;23.67;20.58;95372.72;7298736;19;136986;-57
2022/01/28 08:10:33;;;;;;;16.00;14.60;;;;;;;23.67;20.33;95370.03;7298477;19;137754;-56
2022/01/28 08:13:02;;;;;;;16.60;15.20;;;;;;;23.45;20.87;95353.19;7298856;19;139317;-56
2022/01/28 08:15:27;;;;;;;20.10;18.27;;;;;;;23.23;21.45;95346.72;7295759;19;138301;-57
2022/01/28 08:17:53;;;;;;;19.60;17.87;;;;;;;23.21;21.18;95342.78;7282345;19;137503;-56
2022/01/28 08:20:18;;;;;;;19.20;17.50;;;;;;;23.11;21.28;95339.22;7297564;19;136955;-56
2022/01/28 08:22:47;;;;;;;20.40;18.60;;;;;;;23.03;21.56;95339.94;7297752;19;137063;-57
2022/01/28 08:25:13;;;;;;;19.50;17.80;;;;;;;22.98;21.58;95337.38;7297010;19;137070;-56
2022/01/28 08:27:41;;;;;;;21.33;19.43;;;;;;;23.01;21.83;95333.31;7283995;19;137763;-56
2022/01/28 08:30:08;;;;;;;20.73;18.83;;;;;;;22.92;21.55;95329.78;7297705;19;138525;-57
2022/01/28 08:32:33;;;;;;;19.80;18.10;;;;;;;22.99;21.32;95343.47;7296791;19;136925;-57
2022/01/28 08:34:59;;;;;;;20.80;18.90;;;;;;;22.97;21.77;95327.00;7295822;19;137590;-57
2022/01/28 08:37:24;;;;;;;20.47;18.70;;;;;;;23.05;21.39;95326.31;7297096;19;136955;-56
2022/01/28 08:39:50;;;;;;;20.07;18.27;;;;;;;23.06;22.02;95326.03;7283025;19;136962;-56
2022/01/28 08:42:16;;;;;;;22.07;20.07;;;;;;;23.05;22.05;95327.09;7297323;19;137229;-56
2022/01/28 08:44:42;;;;;;;24.03;21.80;;;;;;;23.04;21.69;95325.53;7296332;19;137450;-56
2022/01/28 08:47:08;;;;;;;22.00;20.03;;;;;;;23.01;22.16;95328.78;7296078;19;137792;-56
2022/01/28 08:49:33;;;;;;;22.70;20.60;;;;;;;23.00;22.05;95321.88;7283653;19;137429;-56
2022/01/28 08:51:59;;;;;;;22.70;20.60;;;;;;;22.96;22.03;95328.88;7295031;19;137052;-56
2022/01/28 08:54:24;;;;;;;23.80;21.70;;;;;;;22.88;21.98;95334.91;7295040;19;138086;-56
2022/01/28 08:56:50;;;;;;;23.73;21.63;;;;;;;22.90;22.03;95335.41;7296652;19;137994;-56
2022/01/28 08:59:15;;;;;;;23.70;21.40;;;;;;;22.98;22.08;95347.22;7297582;19;136988;-56
2022/01/28 09:01:41;;;;;;;23.97;21.87;;;;;;;23.05;21.58;95348.44;7282374;19;137746;-56
2022/01/28 09:04:06;;;;;;;23.97;21.20;;;;;;;23.09;21.61;95352.06;7297518;19;137412;-55
2022/01/28 09:06:32;;;;;;;23.07;20.83;;;;;;;23.17;21.76;95352.44;7297290;19;136878;-56
2022/01/28 09:09:00;;;;;;;23.73;21.43;;;;;;;23.21;21.09;95348.13;7296561;19;136812;-56
2022/01/28 09:13:52;;;;;;;23.10;20.90;;;;;;;23.24;21.57;95350.19;7295381;19;137437;-56
2022/01/28 09:16:20;;;;;;;22.37;20.43;;;;;;;23.24;21.44;95344.84;7295645;19;136894;-56
2022/01/28 09:18:46;;;;;;;21.73;19.73;;;;;;;23.17;21.55;95339.13;7297653;19;137952;-56
2022/01/28 09:21:11;;;;;;;22.20;20.10;;;;;;;23.24;21.63;95342.97;7297098;19;137907;-56
2022/01/28 09:23:37;;;;;;;21.60;19.67;;;;;;;23.26;21.06;95343.47;7283192;19;138270;-56
2022/01/28 09:26:03;;;;;;;20.63;18.73;;;;;;;23.22;21.23;95350.47;7296667;19;136827;-57
2022/01/28 09:28:28;;;;;;;21.53;19.23;;;;;;;23.22;21.79;95339.81;7297021;19;136712;-57
2022/01/28 09:30:54;;;;;;;20.33;18.50;;;;;;;23.20;21.04;95334.00;7295406;19;137679;-57
2022/01/28 09:33:19;;;;;;;19.87;18.30;;;;;;;23.23;21.56;95340.59;7296104;19;137438;-56
2022/01/28 09:35:45;;;;;;;20.47;18.50;;;;;;;23.20;21.55;95338.53;7282846;19;140395;-57
2022/01/28 09:38:11;;;;;;;19.97;18.23;;;;;;;23.24;21.28;95336.84;7295756;19;136952;-57
2022/01/28 09:40:37;;;;;;;19.80;18.07;;;;;;;23.28;21.26;95346.59;7296144;19;137032;-57
2022/01/28 09:43:05;;;;;;;20.33;18.43;;;;;;;23.24;21.23;95345.63;7296719;19;138051;-57
2022/01/28 09:45:31;;;;;;;20.53;18.67;;;;;;;23.23;21.54;95349.38;7283546;19;138988;-57
2022/01/28 09:47:57;;;;;;;20.20;18.37;;;;;;;23.26;21.26;95353.34;7295779;19;137005;-57
2022/01/28 09:50:25;;;;;;;19.40;17.80;;;;;;;23.23;21.17;95349.38;7296374;19;137249;-57
2022/01/28 09:52:52;;;;;;;19.97;18.07;;;;;;;23.25;21.09;95357.09;7293563;19;137973;-57
2022/01/28 09:55:19;;;;;;;20.10;18.23;;;;;;;23.27;21.74;95355.69;7294662;19;138044;-57
2022/01/28 09:57:50;;;;;;;19.40;17.50;;;;;;;23.29;21.49;95358.06;7283471;19;136824;-57
2022/01/28 10:00:15;;;;;;;20.10;18.33;;;;;;;23.25;21.68;95344.56;7302150;19;137696;-56
2022/01/28 10:03:03;;;;;;;18.47;16.97;;;;;;;23.21;21.14;95342.78;7302440;19;137526;-57
2022/01/28 10:05:30;;;;;;;19.20;17.50;;;;;;;23.16;21.10;95338.31;7302643;19;137661;-57
2022/01/28 10:08:08;;;;;;;19.50;17.73;;;;;;;23.16;21.09;95342.88;7287056;19;136678;-57
2022/01/28 10:11:05;;;;;;;18.67;16.87;;;;;;;23.15;21.73;95346.63;7302212;19;139189;-57
2022/01/28 10:13:54;;;;;;;19.60;17.80;;;;;;;22.81;21.32;95308.63;7302743;19;137647;-57
2022/01/28 10:16:26;;;;;;;18.50;16.80;;;;;;;23.04;21.33;95338.84;7298425;19;136893;-56
2022/01/28 10:18:56;;;;;;;17.93;16.23;;;;;;;23.05;21.60;95356.41;7288942;19;137386;-56
2022/01/28 10:21:29;;;;;;;18.17;16.37;;;;;;;23.04;21.77;95357.50;7301952;19;137233;-56
2022/01/28 10:24:03;;;;;;;18.67;17.07;;;;;;;23.01;21.33;95352.78;7301325;19;137201;-56
2022/01/28 10:26:37;;;;;;;17.63;16.03;;;;;;;22.98;21.80;95353.34;7301652;19;137280;-57
2022/01/28 10:29:08;;;;;;;17.77;16.10;;;;;;;22.96;21.83;95347.53;7287619;19;136942;-56
2022/01/28 10:31:39;;;;;;;17.80;16.20;;;;;;;22.96;21.42;95352.88;7300261;19;137085;-56
2022/01/28 10:34:20;;;;;;;18.43;16.73;;;;;;;22.97;21.41;95362.44;7301422;19;137640;-56
2022/01/28 10:36:47;;;;;;;18.10;16.30;;;;;;;22.96;21.81;95349.41;7301323;19;136995;-56
2022/01/28 10:39:15;;;;;;;17.07;15.47;;;;;;;23.00;21.44;95355.72;7300498;19;137161;-56
2022/01/28 10:41:56;;;;;;;18.60;16.90;;;;;;;23.03;21.79;95355.94;7287253;19;137270;-57
2022/01/28 10:44:22;;;;;;;17.23;15.63;;;;;;;23.07;21.68;95356.13;7300578;19;136994;-56
2022/01/28 10:46:58;;;;;;;16.83;15.23;;;;;;;23.09;21.29;95353.94;7300351;19;137634;-56
2022/01/28 10:49:32;;;;;;;17.60;16.00;;;;;;;23.09;21.76;95352.06;7301349;19;136881;-56
2022/01/28 10:52:11;;;;;;;16.90;15.50;;;;;;;23.12;21.62;95356.00;7283227;19;137497;-56
2022/01/28 10:54:37;;;;;;;16.67;15.20;;;;;;;23.11;21.75;95346.44;7299736;19;137829;-56
2022/01/28 10:57:06;;;;;;;17.17;15.73;;;;;;;23.13;21.71;95351.47;7300409;19;137080;-56
2022/01/28 10:59:38;;;;;;;15.80;14.30;;;;;;;23.12;21.27;95348.03;7300309;19;137778;-57
2022/01/28 11:02:05;;;;;;;16.97;15.37;;;;;;;23.14;21.67;95347.72;7285731;19;137082;-57
2022/01/28 11:04:31;;;;;;;18.00;16.20;;;;;;;23.10;21.67;95347.53;7299646;19;138180;-56
2022/01/28 11:06:58;;;;;;;19.90;16.00;;;;;;;22.83;21.43;95294.25;7298506;19;137040;-56
2022/01/28 11:09:25;;;;;;;17.97;16.23;;;;;;;23.10;21.11;95340.31;7298470;19;137218;-58
2022/01/28 11:11:51;;;;;;;16.03;14.63;;;;;;;23.09;21.19;95345.94;7300464;19;138206;-56
2022/01/28 11:14:19;;;;;;;17.37;15.67;;;;;;;23.03;21.13;95334.63;7284393;19;138292;-56
2022/01/28 11:16:45;;;;;;;18.33;16.60;;;;;;;23.06;21.60;95333.22;7299032;19;137770;-56
2022/01/28 11:19:13;;;;;;;17.67;16.07;;;;;;;23.04;21.85;95336.19;7299292;19;136775;-56
2022/01/28 11:21:48;;;;;;;17.33;15.53;;;;;;;23.05;21.85;95329.78;7298055;19;138408;-56
2022/01/28 11:24:22;;;;;;;17.23;15.73;;;;;;;23.04;21.29;95330.06;7285489;19;137717;-56
2022/01/28 11:27:10;;;;;;;18.53;16.10;;;;;;;23.05;21.25;95329.78;7300062;19;136918;-56
2022/01/28 11:29:36;;;;;;;17.83;15.97;;;;;;;23.03;21.22;95323.97;7299193;19;137017;-56
2022/01/28 11:32:28;;;;;;;18.30;16.50;;;;;;;23.02;21.31;95319.72;7300078;19;137660;-56
2022/01/28 11:34:59;;;;;;;17.53;15.80;;;;;;;22.94;21.34;95309.75;7284508;19;137534;-56
2022/01/28 11:37:31;;;;;;;18.50;16.80;;;;;;;22.99;21.27;95309.63;7298125;19;136815;-57
2022/01/28 11:40:11;;;;;;;18.87;17.17;;;;;;;23.03;21.84;95309.84;7298531;19;136894;-56
2022/01/28 11:42:37;;;;;;;17.67;15.97;;;;;;;23.00;21.47;95305.88;7298618;19;137782;-56
2022/01/28 11:45:07;;;;;;;18.33;16.60;;;;;;;22.99;22.00;95316.84;7298039;19;137523;-56
2022/01/28 11:47:34;;;;;;;17.30;15.57;;;;;;;23.00;21.34;95321.06;7284375;19;138280;-56
2022/01/28 11:50:00;;;;;;;17.73;16.13;;;;;;;23.01;21.55;95318.13;7298885;19;137510;-56
2022/01/28 11:52:29;;;;;;;16.90;15.43;;;;;;;23.01;21.77;95310.16;7297369;19;138207;-56
2022/01/28 11:54:56;;;;;;;17.47;15.77;;;;;;;22.97;21.41;95303.81;7296606;19;138815;-56
2022/01/28 11:57:26;;;;;;;15.83;14.33;;;;;;;22.97;21.33;95309.13;7284625;19;137460;-56
2022/01/28 12:00:11;;;;;;;15.83;14.33;;;;;;;22.95;21.87;95295.34;7297581;19;136888;-56
2022/01/28 12:02:50;;;;;;;17.10;15.40;;;;;;;23.01;22.00;95312.81;7298832;19;139009;-57
2022/01/28 12:05:24;;;;;;;16.33;14.80;;;;;;;22.95;21.45;95295.34;7297663;19;137189;-56
2022/01/28 12:07:50;;;;;;;15.73;14.27;;;;;;;23.00;22.18;95297.09;7284533;19;138089;-57
2022/01/28 12:10:17;;;;;;;16.63;14.93;;;;;;;23.01;21.44;95299.50;7297072;19;137129;-56
2022/01/28 12:12:49;;;;;;;15.23;14.00;;;;;;;23.01;21.76;95296.81;7297708;19;138066;-56
2022/01/28 12:15:18;;;;;;;15.97;14.47;;;;;;;22.69;22.01;95240.97;7296215;19;137890;-57
2022/01/28 12:17:46;;;;;;;15.20;13.80;;;;;;;22.99;22.07;95290.97;7297884;19;137679;-56
2022/01/28 12:20:15;;;;;;;15.37;13.90;;;;;;;22.99;21.88;95285.66;7281661;19;138369;-57
2022/01/28 12:23:01;;;;;;;17.13;14.43;;;;;;;23.00;21.79;95291.75;7296745;19;137705;-57
2022/01/28 12:25:36;;;;;;;14.33;13.03;;;;;;;22.99;21.61;95292.84;7297560;19;137310;-57
2022/01/28 12:28:17;;;;;;;13.97;12.77;;;;;;;22.99;21.88;95290.97;7296274;19;137690;-56
2022/01/28 12:30:48;;;;;;;15.33;13.87;;;;;;;22.98;22.08;95283.28;7283359;19;136778;-57
2022/01/28 12:33:19;;;;;;;14.83;13.53;;;;;;;22.98;21.65;95284.06;7297019;19;137041;-56
2022/01/28 12:35:49;;;;;;;15.10;13.80;;;;;;;22.98;22.18;95284.06;7294766;19;137170;-56
2022/01/28 12:38:15;;;;;;;15.03;13.40;;;;;;;22.98;21.69;95285.94;7296452;19;136827;-56